Date,TemperatureHighF,TemperatureAvgF,TemperatureLowF,DewpointHighF,DewpointAvgF,DewpointLowF,HumidityHigh,HumidityAvg,HumidityLow,PressureMaxIn,PressureMinIn,WindSpeedMaxMPH,WindSpeedAvgMPH,GustSpeedMaxMPH,PrecipitationSumIn
2013-4-1,51.4,42.4,33.4,44.5,35.5,14.9,97,78,46,29.23,28.88,18,5,18,0.47
2013-4-2,39.2,31.8,26.2,14.9,10.6,7.5,54,41,31,29.18,29.03,31,7,31,0.04
2013-4-3,43.3,34.3,28.0,13.6,10.4,6.8,53,37,29,29.35,29.12,37,10,37,0.00
2013-4-4,52.0,38.3,28.6,25.6,13.4,6.2,60,37,21,29.53,29.32,26,8,26,0.00
2013-4-5,56.7,44.1,36.5,27.1,22.7,15.7,60,44,29,29.32,29.03,26,6,26,0.00
2013-4-6,42.4,33.8,27.0,16.7,6.8,2.3,44,32,23,29.68,29.15,26,6,26,0.00
2013-4-7,46.6,36.8,24.6,35.3,18.1,2.0,73,47,34,29.68,29.32,41,7,41,0.00
2013-4-8,62.8,49.0,36.5,41.9,30.9,23.6,90,54,28,29.50,29.23,20,4,20,0.00
2013-4-9,45.0,41.7,38.3,43.6,37.7,26.4,96,87,58,29.50,29.23,12,1,12,0.28
2013-4-10,58.3,45.9,38.3,46.6,40.6,32.3,98,84,43,29.35,29.23,17,3,17,0.16
2013-4-11,55.8,44.2,36.0,43.9,32.6,8.8,98,71,26,29.53,29.20,17,1,17,0.00
2013-4-12,38.1,34.6,33.1,31.6,18.9,8.6,93,56,32,29.59,29.23,15,1,15,0.12
2013-4-13,47.7,38.3,33.1,40.9,32.9,29.8,97,82,51,29.26,29.15,8,0,8,0.12
2013-4-14,50.5,42.6,36.1,42.1,35.5,28.8,95,77,52,29.50,29.23,11,0,11,0.12
2013-4-15,53.8,37.0,30.6,35.9,28.7,25.3,84,73,41,29.77,29.50,20,2,20,0.00
2013-4-16,55.6,47.0,40.3,46.5,35.7,28.6,93,67,38,29.77,29.29,29,8,29,0.00
2013-4-17,63.3,52.4,39.6,47.4,28.5,15.6,90,44,25,29.68,29.26,25,2,25,0.00
2013-4-18,51.3,42.7,32.4,32.7,21.5,14.1,59,44,28,29.80,29.50,18,1,18,0.00
2013-4-19,66.7,55.4,46.4,56.9,49.3,32.8,98,81,56,29.50,29.03,38,8,38,0.00
2013-4-20,59.2,53.3,43.2,58.6,40.6,19.0,98,68,30,29.44,28.91,35,6,35,0.31
2013-4-21,52.7,42.5,33.3,22.1,16.4,9.9,44,35,26,29.97,29.44,17,3,17,0.00
2013-4-22,53.6,39.6,28.2,24.6,17.3,9.0,68,42,26,30.06,29.88,20,3,20,0.00
2013-4-23,45.0,37.4,27.9,40.8,31.0,21.4,95,78,57,29.88,29.15,14,2,14,0.00
2013-4-24,58.1,48.8,41.9,53.5,45.3,40.6,98,88,68,17.72,17.72,16,1,16,0.20
2013-4-25,65.7,53.7,43.2,55.9,34.4,18.2,97,55,25,17.72,17.72,26,3,26,0.04
2013-4-26,61.7,48.0,33.6,31.6,24.9,19.8,66,42,27,17.72,17.72,22,3,22,0.00
2013-4-27,62.4,46.2,31.5,37.3,30.6,24.5,87,58,32,17.72,17.72,17,2,17,0.00
2013-4-28,69.1,51.2,35.2,46.4,30.9,24.9,91,52,24,17.72,17.72,22,2,22,0.00
2013-4-29,65.5,50.0,35.4,41.2,33.7,27.7,85,57,25,17.72,17.72,21,2,21,0.00
2013-4-30,69.6,52.1,36.3,48.6,33.6,26.0,94,57,24,17.72,17.72,20,2,20,0.00